sensor_id;sensor_type;location;lat;lon;timestamp;P1;durP1;ratioP1;P2;durP2;ratioP2
14619;SDS011;32125;48.518;9.050;2023-05-10T00:02:24;1.67;;;1.20;;
14619;SDS011;32125;48.518;9.050;2023-05-10T00:04:51;2.40;;;1.40;;
14619;SDS011;32125;48.518;9.050;2023-05-10T00:07:20;1.77;;;1.47;;
14619;SDS011;32125;48.518;9.050;2023-05-10T00:09:49;2.33;;;1.20;;
14619;SDS011;32125;48.518;9.050;2023-05-10T00:12:15;2.00;;;1.00;;
14619;SDS011;32125;48.518;9.050;2023-05-10T00:14:46;2.53;;;1.10;;
14619;SDS011;32125;48.518;9.050;2023-05-10T00:17:12;1.17;;;1.10;;
14619;SDS011;32125;48.518;9.050;2023-05-10T00:19:41;1.10;;;1.00;;
14619;SDS011;32125;48.518;9.050;2023-05-10T00:22:07;3.37;;;1.10;;
14619;SDS011;32125;48.518;9.050;2023-05-10T00:24:33;1.50;;;1.00;;
14619;SDS011;32125;48.518;9.050;2023-05-10T00:27:01;3.53;;;1.10;;
14619;SDS011;32125;48.518;9.050;2023-05-10T00:29:29;0.90;;;0.90;;
14619;SDS011;32125;48.518;9.050;2023-05-10T00:31:55;0.90;;;0.90;;
14619;SDS011;32125;48.518;9.050;2023-05-10T00:34:21;2.57;;;1.00;;
14619;SDS011;32125;48.518;9.050;2023-05-10T00:36:47;1.60;;;0.97;;
14619;SDS011;32125;48.518;9.050;2023-05-10T00:39:15;0.90;;;0.90;;
14619;SDS011;32125;48.518;9.050;2023-05-10T00:41:44;0.93;;;0.70;;
14619;SDS011;32125;48.518;9.050;2023-05-10T00:44:10;0.90;;;0.90;;
14619;SDS011;32125;48.518;9.050;2023-05-10T00:46:36;1.47;;;0.90;;
14619;SDS011;32125;48.518;9.050;2023-05-10T00:49:03;3.30;;;0.87;;
14619;SDS011;32125;48.518;9.050;2023-05-10T00:51:29;0.73;;;0.70;;
14619;SDS011;32125;48.518;9.050;2023-05-10T00:53:56;2.57;;;0.80;;
14619;SDS011;32125;48.518;9.050;2023-05-10T00:56:22;0.70;;;0.70;;
14619;SDS011;32125;48.518;9.050;2023-05-10T00:58:49;1.33;;;0.60;;
14619;SDS011;32125;48.518;9.050;2023-05-10T01:01:15;0.93;;;0.60;;
14619;SDS011;32125;48.518;9.050;2023-05-10T01:03:42;2.00;;;0.53;;
14619;SDS011;32125;48.518;9.050;2023-05-10T01:06:08;1.63;;;0.60;;
14619;SDS011;32125;48.518;9.050;2023-05-10T01:08:36;1.07;;;0.50;;
14619;SDS011;32125;48.518;9.050;2023-05-10T01:11:02;2.70;;;0.60;;
14619;SDS011;32125;48.518;9.050;2023-05-10T01:13:33;0.40;;;0.40;;
14619;SDS011;32125;48.518;9.050;2023-05-10T01:16:01;2.63;;;0.60;;
14619;SDS011;32125;48.518;9.050;2023-05-10T01:18:28;1.37;;;0.40;;
14619;SDS011;32125;48.518;9.050;2023-05-10T01:21:06;1.03;;;0.40;;
14619;SDS011;32125;48.518;9.050;2023-05-10T01:27:02;0.70;;;0.50;;
14619;SDS011;32125;48.518;9.050;2023-05-10T01:32:39;1.30;;;0.60;;
14619;SDS011;32125;48.518;9.050;2023-05-10T01:35:34;0.20;;;0.20;;
14619;SDS011;32125;48.518;9.050;2023-05-10T01:38:31;1.87;;;0.40;;
14619;SDS011;32125;48.518;9.050;2023-05-10T01:41:22;3.63;;;0.40;;
14619;SDS011;32125;48.518;9.050;2023-05-10T01:46:58;1.90;;;0.50;;
14619;SDS011;32125;48.518;9.050;2023-05-10T01:49:32;0.33;;;0.33;;
14619;SDS011;32125;48.518;9.050;2023-05-10T01:52:09;1.93;;;0.40;;
14619;SDS011;32125;48.518;9.050;2023-05-10T01:54:38;1.50;;;0.30;;
14619;SDS011;32125;48.518;9.050;2023-05-10T01:57:09;0.87;;;0.30;;
14619;SDS011;32125;48.518;9.050;2023-05-10T01:59:39;2.07;;;0.50;;
14619;SDS011;32125;48.518;9.050;2023-05-10T02:02:06;1.07;;;0.50;;
14619;SDS011;32125;48.518;9.050;2023-05-10T02:04:37;0.73;;;0.40;;
14619;SDS011;32125;48.518;9.050;2023-05-10T02:07:05;0.30;;;0.30;;
14619;SDS011;32125;48.518;9.050;2023-05-10T02:09:34;0.57;;;0.43;;
14619;SDS011;32125;48.518;9.050;2023-05-10T02:12:01;1.70;;;0.53;;
14619;SDS011;32125;48.518;9.050;2023-05-10T02:14:32;4.60;;;0.63;;
14619;SDS011;32125;48.518;9.050;2023-05-10T02:17:03;0.80;;;0.50;;
14619;SDS011;32125;48.518;9.050;2023-05-10T02:19:31;0.50;;;0.50;;
14619;SDS011;32125;48.518;9.050;2023-05-10T02:22:00;4.20;;;0.70;;
14619;SDS011;32125;48.518;9.050;2023-05-10T02:24:29;0.40;;;0.40;;
14619;SDS011;32125;48.518;9.050;2023-05-10T02:26:56;2.53;;;0.60;;
14619;SDS011;32125;48.518;9.050;2023-05-10T02:29:23;0.73;;;0.60;;
14619;SDS011;32125;48.518;9.050;2023-05-10T02:31:49;1.30;;;0.53;;
14619;SDS011;32125;48.518;9.050;2023-05-10T02:34:17;0.60;;;0.60;;
14619;SDS011;32125;48.518;9.050;2023-05-10T02:36:43;4.33;;;0.70;;
14619;SDS011;32125;48.518;9.050;2023-05-10T02:39:09;2.30;;;0.70;;
14619;SDS011;32125;48.518;9.050;2023-05-10T02:41:38;2.23;;;0.70;;
14619;SDS011;32125;48.518;9.050;2023-05-10T02:44:06;1.67;;;0.80;;
14619;SDS011;32125;48.518;9.050;2023-05-10T02:46:34;0.93;;;0.70;;
14619;SDS011;32125;48.518;9.050;2023-05-10T02:49:02;0.87;;;0.60;;
14619;SDS011;32125;48.518;9.050;2023-05-10T02:51:30;0.90;;;0.87;;
14619;SDS011;32125;48.518;9.050;2023-05-10T02:54:01;0.93;;;0.70;;
14619;SDS011;32125;48.518;9.050;2023-05-10T02:56:35;2.43;;;0.80;;
14619;SDS011;32125;48.518;9.050;2023-05-10T02:59:05;5.70;;;0.97;;
14619;SDS011;32125;48.518;9.050;2023-05-10T03:01:31;4.80;;;1.10;;
14619;SDS011;32125;48.518;9.050;2023-05-10T03:03:58;1.07;;;0.90;;
14619;SDS011;32125;48.518;9.050;2023-05-10T03:06:24;2.00;;;0.70;;
14619;SDS011;32125;48.518;9.050;2023-05-10T03:08:50;1.97;;;0.90;;
14619;SDS011;32125;48.518;9.050;2023-05-10T03:16:54;2.87;;;1.20;;
14619;SDS011;32125;48.518;9.050;2023-05-10T03:22:25;1.97;;;0.93;;
14619;SDS011;32125;48.518;9.050;2023-05-10T03:24:56;2.70;;;1.03;;
14619;SDS011;32125;48.518;9.050;2023-05-10T03:27:25;1.13;;;1.00;;
14619;SDS011;32125;48.518;9.050;2023-05-10T03:29:52;1.50;;;0.70;;
14619;SDS011;32125;48.518;9.050;2023-05-10T03:32:19;1.60;;;1.00;;
14619;SDS011;32125;48.518;9.050;2023-05-10T03:34:45;1.43;;;1.07;;
14619;SDS011;32125;48.518;9.050;2023-05-10T03:37:11;1.47;;;0.87;;
14619;SDS011;32125;48.518;9.050;2023-05-10T03:39:37;2.20;;;1.00;;
14619;SDS011;32125;48.518;9.050;2023-05-10T03:42:03;1.53;;;0.93;;
14619;SDS011;32125;48.518;9.050;2023-05-10T03:44:31;1.00;;;1.00;;
14619;SDS011;32125;48.518;9.050;2023-05-10T03:46:59;1.20;;;1.10;;
14619;SDS011;32125;48.518;9.050;2023-05-10T03:49:25;1.83;;;1.00;;
14619;SDS011;32125;48.518;9.050;2023-05-10T03:51:51;3.90;;;1.30;;
14619;SDS011;32125;48.518;9.050;2023-05-10T03:54:17;1.40;;;1.20;;
14619;SDS011;32125;48.518;9.050;2023-05-10T03:56:43;1.37;;;1.13;;
14619;SDS011;32125;48.518;9.050;2023-05-10T03:59:09;1.30;;;1.20;;
14619;SDS011;32125;48.518;9.050;2023-05-10T04:01:35;1.70;;;1.20;;
14619;SDS011;32125;48.518;9.050;2023-05-10T04:04:01;1.33;;;1.20;;
14619;SDS011;32125;48.518;9.050;2023-05-10T04:06:27;1.00;;;1.00;;
14619;SDS011;32125;48.518;9.050;2023-05-10T04:08:53;3.97;;;1.10;;
14619;SDS011;32125;48.518;9.050;2023-05-10T04:11:20;1.83;;;1.03;;
14619;SDS011;32125;48.518;9.050;2023-05-10T04:13:47;1.73;;;1.07;;
14619;SDS011;32125;48.518;9.050;2023-05-10T04:16:13;1.57;;;1.30;;
14619;SDS011;32125;48.518;9.050;2023-05-10T04:18:41;6.23;;;1.53;;
14619;SDS011;32125;48.518;9.050;2023-05-10T04:21:11;3.30;;;1.10;;
14619;SDS011;32125;48.518;9.050;2023-05-10T04:23:38;2.70;;;1.30;;
14619;SDS011;32125;48.518;9.050;2023-05-10T04:26:04;1.37;;;1.00;;
14619;SDS011;32125;48.518;9.050;2023-05-10T04:28:30;3.23;;;1.00;;
14619;SDS011;32125;48.518;9.050;2023-05-10T04:31:03;1.60;;;1.10;;
14619;SDS011;32125;48.518;9.050;2023-05-10T04:33:29;1.00;;;1.00;;
14619;SDS011;32125;48.518;9.050;2023-05-10T04:35:55;1.47;;;1.20;;
14619;SDS011;32125;48.518;9.050;2023-05-10T04:38:21;2.40;;;1.20;;
14619;SDS011;32125;48.518;9.050;2023-05-10T04:40:50;1.83;;;1.17;;
14619;SDS011;32125;48.518;9.050;2023-05-10T04:43:16;3.23;;;1.50;;
14619;SDS011;32125;48.518;9.050;2023-05-10T04:45:42;3.80;;;1.50;;
14619;SDS011;32125;48.518;9.050;2023-05-10T04:48:07;3.53;;;2.93;;
14619;SDS011;32125;48.518;9.050;2023-05-10T04:50:33;1.47;;;1.37;;
14619;SDS011;32125;48.518;9.050;2023-05-10T04:52:59;1.43;;;1.33;;
14619;SDS011;32125;48.518;9.050;2023-05-10T04:55:25;1.20;;;1.20;;
14619;SDS011;32125;48.518;9.050;2023-05-10T04:57:54;3.43;;;1.40;;
14619;SDS011;32125;48.518;9.050;2023-05-10T05:00:22;2.03;;;1.40;;
14619;SDS011;32125;48.518;9.050;2023-05-10T05:02:48;4.20;;;1.30;;
14619;SDS011;32125;48.518;9.050;2023-05-10T05:05:14;1.10;;;1.03;;
14619;SDS011;32125;48.518;9.050;2023-05-10T05:07:40;4.43;;;1.40;;
14619;SDS011;32125;48.518;9.050;2023-05-10T05:10:06;2.40;;;1.10;;
14619;SDS011;32125;48.518;9.050;2023-05-10T05:12:33;4.03;;;1.40;;
14619;SDS011;32125;48.518;9.050;2023-05-10T05:14:59;2.90;;;1.30;;
14619;SDS011;32125;48.518;9.050;2023-05-10T05:17:27;1.93;;;1.17;;
14619;SDS011;32125;48.518;9.050;2023-05-10T05:19:55;2.83;;;1.10;;
14619;SDS011;32125;48.518;9.050;2023-05-10T05:22:21;2.50;;;2.20;;
14619;SDS011;32125;48.518;9.050;2023-05-10T05:24:53;1.30;;;1.17;;
14619;SDS011;32125;48.518;9.050;2023-05-10T05:27:21;2.70;;;1.20;;
14619;SDS011;32125;48.518;9.050;2023-05-10T05:29:52;1.10;;;1.00;;
14619;SDS011;32125;48.518;9.050;2023-05-10T05:32:22;1.63;;;1.30;;
14619;SDS011;32125;48.518;9.050;2023-05-10T05:34:48;2.57;;;1.10;;
14619;SDS011;32125;48.518;9.050;2023-05-10T05:37:20;1.30;;;1.20;;
14619;SDS011;32125;48.518;9.050;2023-05-10T05:39:49;1.57;;;1.20;;
14619;SDS011;32125;48.518;9.050;2023-05-10T05:42:15;4.17;;;1.50;;
14619;SDS011;32125;48.518;9.050;2023-05-10T05:44:42;2.50;;;1.63;;
14619;SDS011;32125;48.518;9.050;2023-05-10T05:47:08;1.83;;;1.70;;
14619;SDS011;32125;48.518;9.050;2023-05-10T05:49:35;6.73;;;2.13;;
14619;SDS011;32125;48.518;9.050;2023-05-10T05:52:02;3.80;;;2.00;;
14619;SDS011;32125;48.518;9.050;2023-05-10T05:54:28;4.10;;;1.50;;
14619;SDS011;32125;48.518;9.050;2023-05-10T05:56:59;3.00;;;1.70;;
14619;SDS011;32125;48.518;9.050;2023-05-10T05:59:25;1.30;;;1.20;;
14619;SDS011;32125;48.518;9.050;2023-05-10T06:01:54;1.60;;;1.50;;
14619;SDS011;32125;48.518;9.050;2023-05-10T06:04:20;2.13;;;1.30;;
14619;SDS011;32125;48.518;9.050;2023-05-10T06:06:46;2.20;;;1.50;;
14619;SDS011;32125;48.518;9.050;2023-05-10T06:09:12;2.07;;;1.60;;
14619;SDS011;32125;48.518;9.050;2023-05-10T06:11:37;1.60;;;1.50;;
14619;SDS011;32125;48.518;9.050;2023-05-10T06:14:04;2.70;;;1.43;;
14619;SDS011;32125;48.518;9.050;2023-05-10T06:16:35;2.23;;;1.20;;
14619;SDS011;32125;48.518;9.050;2023-05-10T06:19:02;1.70;;;1.40;;
14619;SDS011;32125;48.518;9.050;2023-05-10T06:21:30;4.40;;;1.50;;
14619;SDS011;32125;48.518;9.050;2023-05-10T06:23:56;1.47;;;1.37;;
14619;SDS011;32125;48.518;9.050;2023-05-10T06:26:25;1.30;;;1.30;;
14619;SDS011;32125;48.518;9.050;2023-05-10T06:28:51;2.00;;;1.90;;
14619;SDS011;32125;48.518;9.050;2023-05-10T06:31:17;2.90;;;1.40;;
14619;SDS011;32125;48.518;9.050;2023-05-10T06:33:43;3.87;;;1.50;;
14619;SDS011;32125;48.518;9.050;2023-05-10T06:36:11;1.30;;;1.20;;
14619;SDS011;32125;48.518;9.050;2023-05-10T06:38:39;3.50;;;1.27;;
14619;SDS011;32125;48.518;9.050;2023-05-10T06:41:09;4.77;;;1.20;;
14619;SDS011;32125;48.518;9.050;2023-05-10T06:43:38;2.77;;;1.27;;
14619;SDS011;32125;48.518;9.050;2023-05-10T06:46:06;4.40;;;3.33;;
14619;SDS011;32125;48.518;9.050;2023-05-10T06:48:32;3.40;;;1.40;;
14619;SDS011;32125;48.518;9.050;2023-05-10T06:50:58;1.70;;;1.30;;
14619;SDS011;32125;48.518;9.050;2023-05-10T06:53:24;1.63;;;1.10;;
14619;SDS011;32125;48.518;9.050;2023-05-10T06:55:53;1.60;;;1.10;;
14619;SDS011;32125;48.518;9.050;2023-05-10T06:58:19;2.53;;;1.10;;
14619;SDS011;32125;48.518;9.050;2023-05-10T07:00:45;5.13;;;1.27;;
14619;SDS011;32125;48.518;9.050;2023-05-10T07:03:13;1.90;;;1.60;;
14619;SDS011;32125;48.518;9.050;2023-05-10T07:05:41;1.97;;;1.20;;
14619;SDS011;32125;48.518;9.050;2023-05-10T07:08:08;1.67;;;1.07;;
14619;SDS011;32125;48.518;9.050;2023-05-10T07:10:34;2.17;;;1.10;;
14619;SDS011;32125;48.518;9.050;2023-05-10T07:13:00;3.03;;;1.20;;
14619;SDS011;32125;48.518;9.050;2023-05-10T07:15:26;1.00;;;1.00;;
14619;SDS011;32125;48.518;9.050;2023-05-10T07:17:57;1.47;;;1.00;;
14619;SDS011;32125;48.518;9.050;2023-05-10T07:20:25;3.27;;;1.00;;
14619;SDS011;32125;48.518;9.050;2023-05-10T07:22:53;1.70;;;1.03;;
14619;SDS011;32125;48.518;9.050;2023-05-10T07:25:22;1.20;;;0.93;;
14619;SDS011;32125;48.518;9.050;2023-05-10T07:27:48;1.10;;;0.97;;
14619;SDS011;32125;48.518;9.050;2023-05-10T07:30:17;1.93;;;1.00;;
14619;SDS011;32125;48.518;9.050;2023-05-10T07:32:43;1.30;;;1.10;;
14619;SDS011;32125;48.518;9.050;2023-05-10T07:35:09;1.03;;;1.00;;
14619;SDS011;32125;48.518;9.050;2023-05-10T07:37:38;1.70;;;1.00;;
14619;SDS011;32125;48.518;9.050;2023-05-10T07:40:04;1.13;;;1.00;;
14619;SDS011;32125;48.518;9.050;2023-05-10T07:42:30;1.03;;;0.97;;
14619;SDS011;32125;48.518;9.050;2023-05-10T07:44:56;1.27;;;1.00;;
14619;SDS011;32125;48.518;9.050;2023-05-10T07:47:22;0.70;;;0.70;;
14619;SDS011;32125;48.518;9.050;2023-05-10T07:49:48;0.90;;;0.90;;
14619;SDS011;32125;48.518;9.050;2023-05-10T07:52:17;0.87;;;0.87;;
14619;SDS011;32125;48.518;9.050;2023-05-10T07:54:45;1.63;;;0.80;;
14619;SDS011;32125;48.518;9.050;2023-05-10T07:57:11;2.50;;;0.90;;
14619;SDS011;32125;48.518;9.050;2023-05-10T07:59:39;1.53;;;0.90;;
14619;SDS011;32125;48.518;9.050;2023-05-10T08:02:06;2.10;;;1.10;;
14619;SDS011;32125;48.518;9.050;2023-05-10T08:04:32;1.90;;;0.80;;
14619;SDS011;32125;48.518;9.050;2023-05-10T08:07:00;1.57;;;0.97;;
14619;SDS011;32125;48.518;9.050;2023-05-10T08:09:26;0.60;;;0.60;;
14619;SDS011;32125;48.518;9.050;2023-05-10T08:11:52;2.97;;;0.70;;
14619;SDS011;32125;48.518;9.050;2023-05-10T08:14:21;0.63;;;0.63;;
14619;SDS011;32125;48.518;9.050;2023-05-10T08:16:47;0.93;;;0.63;;
14619;SDS011;32125;48.518;9.050;2023-05-10T08:19:15;0.73;;;0.67;;
14619;SDS011;32125;48.518;9.050;2023-05-10T08:21:44;1.57;;;0.70;;
14619;SDS011;32125;48.518;9.050;2023-05-10T08:24:10;1.97;;;0.50;;
14619;SDS011;32125;48.518;9.050;2023-05-10T08:26:36;1.53;;;0.70;;
14619;SDS011;32125;48.518;9.050;2023-05-10T08:29:02;0.50;;;0.50;;
14619;SDS011;32125;48.518;9.050;2023-05-10T08:31:28;1.43;;;0.77;;
14619;SDS011;32125;48.518;9.050;2023-05-10T08:33:54;1.00;;;0.60;;
14619;SDS011;32125;48.518;9.050;2023-05-10T08:36:20;1.80;;;0.70;;
14619;SDS011;32125;48.518;9.050;2023-05-10T08:38:50;1.67;;;0.65;;
14619;SDS011;32125;48.518;9.050;2023-05-10T08:41:19;0.65;;;0.52;;
14619;SDS011;32125;48.518;9.050;2023-05-10T08:43:46;0.85;;;0.70;;
14619;SDS011;32125;48.518;9.050;2023-05-10T08:46:16;0.95;;;0.50;;
14619;SDS011;32125;48.518;9.050;2023-05-10T08:48:43;0.85;;;0.60;;
14619;SDS011;32125;48.518;9.050;2023-05-10T08:51:13;1.75;;;0.50;;
14619;SDS011;32125;48.518;9.050;2023-05-10T08:53:39;3.17;;;0.60;;
14619;SDS011;32125;48.518;9.050;2023-05-10T08:56:06;0.77;;;0.60;;
14619;SDS011;32125;48.518;9.050;2023-05-10T08:58:32;2.77;;;0.80;;
14619;SDS011;32125;48.518;9.050;2023-05-10T09:00:59;0.83;;;0.40;;
14619;SDS011;32125;48.518;9.050;2023-05-10T09:03:25;1.63;;;0.63;;
14619;SDS011;32125;48.518;9.050;2023-05-10T09:05:54;0.40;;;0.37;;
14619;SDS011;32125;48.518;9.050;2023-05-10T09:08:23;0.43;;;0.30;;
14619;SDS011;32125;48.518;9.050;2023-05-10T09:10:52;0.30;;;0.30;;
14619;SDS011;32125;48.518;9.050;2023-05-10T09:13:18;1.03;;;0.20;;
14619;SDS011;32125;48.518;9.050;2023-05-10T09:15:44;0.37;;;0.37;;
14619;SDS011;32125;48.518;9.050;2023-05-10T09:18:11;0.90;;;0.30;;
14619;SDS011;32125;48.518;9.050;2023-05-10T09:20:37;0.33;;;0.20;;
14619;SDS011;32125;48.518;9.050;2023-05-10T09:23:03;1.20;;;0.40;;
14619;SDS011;32125;48.518;9.050;2023-05-10T09:25:29;0.20;;;0.20;;
14619;SDS011;32125;48.518;9.050;2023-05-10T09:27:58;0.60;;;0.38;;
14619;SDS011;32125;48.518;9.050;2023-05-10T09:32:50;2.03;;;0.47;;
14619;SDS011;32125;48.518;9.050;2023-05-10T09:35:17;0.35;;;0.35;;
14619;SDS011;32125;48.518;9.050;2023-05-10T09:37:49;2.80;;;0.40;;
14619;SDS011;32125;48.518;9.050;2023-05-10T09:40:17;0.30;;;0.30;;
14619;SDS011;32125;48.518;9.050;2023-05-10T09:42:50;0.90;;;0.45;;
14619;SDS011;32125;48.518;9.050;2023-05-10T09:45:24;0.30;;;0.30;;
14619;SDS011;32125;48.518;9.050;2023-05-10T09:47:54;1.33;;;0.40;;
14619;SDS011;32125;48.518;9.050;2023-05-10T09:50:20;0.63;;;0.40;;
14619;SDS011;32125;48.518;9.050;2023-05-10T09:55:13;0.35;;;0.35;;
14619;SDS011;32125;48.518;9.050;2023-05-10T09:57:39;2.88;;;0.40;;
14619;SDS011;32125;48.518;9.050;2023-05-10T10:00:05;2.22;;;0.45;;
14619;SDS011;32125;48.518;9.050;2023-05-10T10:02:32;0.40;;;0.40;;
14619;SDS011;32125;48.518;9.050;2023-05-10T10:04:58;1.83;;;0.50;;
14619;SDS011;32125;48.518;9.050;2023-05-10T10:07:29;1.85;;;0.50;;
14619;SDS011;32125;48.518;9.050;2023-05-10T10:09:55;3.40;;;0.57;;
14619;SDS011;32125;48.518;9.050;2023-05-10T10:12:21;1.70;;;0.50;;
14619;SDS011;32125;48.518;9.050;2023-05-10T10:14:47;1.97;;;0.60;;
14619;SDS011;32125;48.518;9.050;2023-05-10T10:17:15;0.60;;;0.60;;
14619;SDS011;32125;48.518;9.050;2023-05-10T10:19:41;1.07;;;0.50;;
14619;SDS011;32125;48.518;9.050;2023-05-10T10:22:07;1.33;;;0.60;;
14619;SDS011;32125;48.518;9.050;2023-05-10T10:24:35;1.77;;;0.60;;
14619;SDS011;32125;48.518;9.050;2023-05-10T10:27:08;1.20;;;0.50;;
14619;SDS011;32125;48.518;9.050;2023-05-10T10:32:24;0.63;;;0.60;;
14619;SDS011;32125;48.518;9.050;2023-05-10T10:35:14;2.42;;;1.10;;
14619;SDS011;32125;48.518;9.050;2023-05-10T10:37:47;0.75;;;0.50;;
14619;SDS011;32125;48.518;9.050;2023-05-10T10:42:50;0.60;;;0.60;;
14619;SDS011;32125;48.518;9.050;2023-05-10T10:45:17;1.15;;;0.60;;
14619;SDS011;32125;48.518;9.050;2023-05-10T10:47:43;0.68;;;0.50;;
14619;SDS011;32125;48.518;9.050;2023-05-10T10:50:10;0.47;;;0.47;;
14619;SDS011;32125;48.518;9.050;2023-05-10T10:52:42;0.68;;;0.47;;
14619;SDS011;32125;48.518;9.050;2023-05-10T10:55:15;1.60;;;0.50;;
14619;SDS011;32125;48.518;9.050;2023-05-10T10:57:44;1.50;;;0.57;;
14619;SDS011;32125;48.518;9.050;2023-05-10T11:03:05;0.75;;;0.60;;
14619;SDS011;32125;48.518;9.050;2023-05-10T11:05:41;0.57;;;0.57;;
14619;SDS011;32125;48.518;9.050;2023-05-10T11:08:15;2.00;;;0.60;;
14619;SDS011;32125;48.518;9.050;2023-05-10T11:10:49;3.40;;;0.55;;
14619;SDS011;32125;48.518;9.050;2023-05-10T11:13:17;0.43;;;0.40;;
14619;SDS011;32125;48.518;9.050;2023-05-10T11:15:53;1.80;;;0.40;;
14619;SDS011;32125;48.518;9.050;2023-05-10T11:18:29;3.20;;;0.47;;
14619;SDS011;32125;48.518;9.050;2023-05-10T11:25:56;0.60;;;0.40;;
14619;SDS011;32125;48.518;9.050;2023-05-10T11:28:23;3.23;;;0.60;;
14619;SDS011;32125;48.518;9.050;2023-05-10T11:30:52;0.83;;;0.50;;
14619;SDS011;32125;48.518;9.050;2023-05-10T11:33:18;0.60;;;0.50;;
14619;SDS011;32125;48.518;9.050;2023-05-10T11:35:44;2.97;;;0.70;;
14619;SDS011;32125;48.518;9.050;2023-05-10T11:38:11;1.77;;;0.60;;
14619;SDS011;32125;48.518;9.050;2023-05-10T11:40:40;2.20;;;0.70;;
14619;SDS011;32125;48.518;9.050;2023-05-10T11:43:06;3.60;;;0.90;;
14619;SDS011;32125;48.518;9.050;2023-05-10T11:45:32;1.20;;;0.70;;
14619;SDS011;32125;48.518;9.050;2023-05-10T11:48:01;0.77;;;0.70;;
14619;SDS011;32125;48.518;9.050;2023-05-10T11:50:28;3.03;;;0.70;;
14619;SDS011;32125;48.518;9.050;2023-05-10T11:52:54;2.57;;;0.80;;
14619;SDS011;32125;48.518;9.050;2023-05-10T11:55:21;2.20;;;0.77;;
14619;SDS011;32125;48.518;9.050;2023-05-10T11:57:52;2.40;;;0.70;;
14619;SDS011;32125;48.518;9.050;2023-05-10T12:00:19;0.63;;;0.63;;
14619;SDS011;32125;48.518;9.050;2023-05-10T12:02:45;0.83;;;0.60;;
14619;SDS011;32125;48.518;9.050;2023-05-10T12:05:11;2.97;;;0.70;;
14619;SDS011;32125;48.518;9.050;2023-05-10T12:07:40;0.82;;;0.43;;
14619;SDS011;32125;48.518;9.050;2023-05-10T12:10:07;1.17;;;0.80;;
14619;SDS011;32125;48.518;9.050;2023-05-10T12:12:52;1.40;;;0.80;;
14619;SDS011;32125;48.518;9.050;2023-05-10T12:15:18;1.80;;;0.90;;
14619;SDS011;32125;48.518;9.050;2023-05-10T12:17:48;0.93;;;0.77;;
14619;SDS011;32125;48.518;9.050;2023-05-10T12:22:56;1.08;;;0.77;;
14619;SDS011;32125;48.518;9.050;2023-05-10T12:25:23;1.07;;;0.60;;
14619;SDS011;32125;48.518;9.050;2023-05-10T12:27:51;1.02;;;0.70;;
14619;SDS011;32125;48.518;9.050;2023-05-10T12:30:19;1.10;;;0.60;;
14619;SDS011;32125;48.518;9.050;2023-05-10T12:32:47;1.23;;;0.60;;
14619;SDS011;32125;48.518;9.050;2023-05-10T12:35:13;0.43;;;0.43;;
14619;SDS011;32125;48.518;9.050;2023-05-10T12:37:40;0.93;;;0.80;;
14619;SDS011;32125;48.518;9.050;2023-05-10T12:40:08;2.17;;;0.70;;
14619;SDS011;32125;48.518;9.050;2023-05-10T12:42:36;2.23;;;0.80;;
14619;SDS011;32125;48.518;9.050;2023-05-10T12:45:04;0.90;;;0.77;;
14619;SDS011;32125;48.518;9.050;2023-05-10T12:47:30;1.33;;;0.90;;
14619;SDS011;32125;48.518;9.050;2023-05-10T12:49:56;1.20;;;0.93;;
14619;SDS011;32125;48.518;9.050;2023-05-10T12:52:23;1.40;;;0.80;;
14619;SDS011;32125;48.518;9.050;2023-05-10T12:54:52;0.63;;;0.63;;
14619;SDS011;32125;48.518;9.050;2023-05-10T12:57:18;1.53;;;0.90;;
14619;SDS011;32125;48.518;9.050;2023-05-10T12:59:44;3.30;;;0.83;;
14619;SDS011;32125;48.518;9.050;2023-05-10T13:02:10;2.13;;;0.90;;
14619;SDS011;32125;48.518;9.050;2023-05-10T13:04:36;1.20;;;0.80;;
14619;SDS011;32125;48.518;9.050;2023-05-10T13:07:05;1.98;;;0.80;;
14619;SDS011;32125;48.518;9.050;2023-05-10T13:09:33;2.00;;;0.80;;
14619;SDS011;32125;48.518;9.050;2023-05-10T13:11:59;1.05;;;0.90;;
14619;SDS011;32125;48.518;9.050;2023-05-10T13:14:27;0.80;;;0.70;;
14619;SDS011;32125;48.518;9.050;2023-05-10T13:16:53;2.92;;;0.90;;
14619;SDS011;32125;48.518;9.050;2023-05-10T13:19:19;1.00;;;0.80;;
14619;SDS011;32125;48.518;9.050;2023-05-10T13:21:46;3.35;;;0.98;;
14619;SDS011;32125;48.518;9.050;2023-05-10T13:24:12;4.45;;;1.10;;
14619;SDS011;32125;48.518;9.050;2023-05-10T13:26:39;2.35;;;1.02;;
14619;SDS011;32125;48.518;9.050;2023-05-10T13:29:05;2.17;;;0.80;;
14619;SDS011;32125;48.518;9.050;2023-05-10T13:31:31;3.40;;;1.00;;
14619;SDS011;32125;48.518;9.050;2023-05-10T13:33:58;2.15;;;0.90;;
14619;SDS011;32125;48.518;9.050;2023-05-10T13:36:24;2.58;;;1.13;;
14619;SDS011;32125;48.518;9.050;2023-05-10T13:38:50;1.17;;;0.95;;
14619;SDS011;32125;48.518;9.050;2023-05-10T13:41:17;1.75;;;0.80;;
14619;SDS011;32125;48.518;9.050;2023-05-10T13:43:43;1.25;;;1.00;;
14619;SDS011;32125;48.518;9.050;2023-05-10T13:46:10;1.88;;;0.80;;
14619;SDS011;32125;48.518;9.050;2023-05-10T13:48:36;1.15;;;1.00;;
14619;SDS011;32125;48.518;9.050;2023-05-10T13:51:02;1.13;;;0.82;;
14619;SDS011;32125;48.518;9.050;2023-05-10T13:53:28;1.13;;;0.90;;
14619;SDS011;32125;48.518;9.050;2023-05-10T13:55:54;1.52;;;0.80;;
14619;SDS011;32125;48.518;9.050;2023-05-10T13:58:27;2.22;;;1.10;;
14619;SDS011;32125;48.518;9.050;2023-05-10T14:00:56;2.78;;;1.17;;
14619;SDS011;32125;48.518;9.050;2023-05-10T14:03:24;0.90;;;0.90;;
14619;SDS011;32125;48.518;9.050;2023-05-10T14:05:50;1.90;;;0.90;;
14619;SDS011;32125;48.518;9.050;2023-05-10T14:08:16;1.48;;;1.05;;
14619;SDS011;32125;48.518;9.050;2023-05-10T14:10:42;1.10;;;0.68;;
14619;SDS011;32125;48.518;9.050;2023-05-10T14:13:08;1.73;;;1.00;;
14619;SDS011;32125;48.518;9.050;2023-05-10T14:15:34;3.53;;;2.42;;
14619;SDS011;32125;48.518;9.050;2023-05-10T14:18:01;0.70;;;0.70;;
14619;SDS011;32125;48.518;9.050;2023-05-10T14:20:27;1.00;;;0.90;;
14619;SDS011;32125;48.518;9.050;2023-05-10T14:22:54;3.65;;;0.70;;
14619;SDS011;32125;48.518;9.050;2023-05-10T14:25:20;1.65;;;0.80;;
14619;SDS011;32125;48.518;9.050;2023-05-10T14:27:46;1.08;;;0.88;;
14619;SDS011;32125;48.518;9.050;2023-05-10T14:30:12;2.57;;;1.10;;
14619;SDS011;32125;48.518;9.050;2023-05-10T14:32:38;3.43;;;0.90;;
14619;SDS011;32125;48.518;9.050;2023-05-10T14:35:07;1.40;;;0.87;;
14619;SDS011;32125;48.518;9.050;2023-05-10T14:37:33;0.70;;;0.70;;
14619;SDS011;32125;48.518;9.050;2023-05-10T14:40:02;2.07;;;0.83;;
14619;SDS011;32125;48.518;9.050;2023-05-10T14:42:31;1.67;;;0.80;;
14619;SDS011;32125;48.518;9.050;2023-05-10T14:44:57;1.03;;;0.77;;
14619;SDS011;32125;48.518;9.050;2023-05-10T14:47:26;2.00;;;0.90;;
14619;SDS011;32125;48.518;9.050;2023-05-10T14:49:52;1.10;;;0.90;;
14619;SDS011;32125;48.518;9.050;2023-05-10T14:52:18;2.40;;;0.83;;
14619;SDS011;32125;48.518;9.050;2023-05-10T14:54:44;2.87;;;1.07;;
14619;SDS011;32125;48.518;9.050;2023-05-10T14:57:10;1.20;;;1.10;;
14619;SDS011;32125;48.518;9.050;2023-05-10T14:59:36;2.05;;;0.80;;
14619;SDS011;32125;48.518;9.050;2023-05-10T15:02:02;1.35;;;0.70;;
14619;SDS011;32125;48.518;9.050;2023-05-10T15:04:29;2.08;;;0.68;;
14619;SDS011;32125;48.518;9.050;2023-05-10T15:06:55;2.05;;;0.80;;
14619;SDS011;32125;48.518;9.050;2023-05-10T15:09:27;2.70;;;0.80;;
14619;SDS011;32125;48.518;9.050;2023-05-10T15:11:53;2.37;;;0.90;;
14619;SDS011;32125;48.518;9.050;2023-05-10T15:14:21;3.50;;;0.80;;
14619;SDS011;32125;48.518;9.050;2023-05-10T15:16:47;2.53;;;0.80;;
14619;SDS011;32125;48.518;9.050;2023-05-10T15:19:13;1.73;;;0.80;;
14619;SDS011;32125;48.518;9.050;2023-05-10T15:21:41;1.52;;;0.98;;
14619;SDS011;32125;48.518;9.050;2023-05-10T15:24:10;1.27;;;0.85;;
14619;SDS011;32125;48.518;9.050;2023-05-10T15:26:36;0.90;;;0.70;;
14619;SDS011;32125;48.518;9.050;2023-05-10T15:29:03;2.05;;;0.75;;
14619;SDS011;32125;48.518;9.050;2023-05-10T15:31:29;1.85;;;0.80;;